sensor_id;sensor_type;location;lat;lon;timestamp;temperature;humidity
76040;SHT30;64736;50.462;4.850;2023-11-22T00:00:57;6.26;91.66
76040;SHT30;64736;50.462;4.850;2023-11-22T00:03:23;6.28;91.88
76040;SHT30;64736;50.462;4.850;2023-11-22T00:05:50;6.20;92.03
76040;SHT30;64736;50.462;4.850;2023-11-22T00:08:17;6.16;92.46
76040;SHT30;64736;50.462;4.850;2023-11-22T00:10:43;6.14;92.60
76040;SHT30;64736;50.462;4.850;2023-11-22T00:13:10;6.09;92.84
76040;SHT30;64736;50.462;4.850;2023-11-22T00:15:37;6.10;92.96
76040;SHT30;64736;50.462;4.850;2023-11-22T00:18:03;6.03;93.01
76040;SHT30;64736;50.462;4.850;2023-11-22T00:20:29;6.05;92.67
76040;SHT30;64736;50.462;4.850;2023-11-22T00:22:56;5.99;93.24
76040;SHT30;64736;50.462;4.850;2023-11-22T00:25:22;5.99;93.40
76040;SHT30;64736;50.462;4.850;2023-11-22T00:27:48;5.85;93.61
76040;SHT30;64736;50.462;4.850;2023-11-22T00:30:14;5.82;93.78
76040;SHT30;64736;50.462;4.850;2023-11-22T00:32:40;5.85;93.85
76040;SHT30;64736;50.462;4.850;2023-11-22T00:35:07;5.83;93.80
76040;SHT30;64736;50.462;4.850;2023-11-22T00:37:33;5.75;94.12
76040;SHT30;64736;50.462;4.850;2023-11-22T00:40:00;5.71;94.26
76040;SHT30;64736;50.462;4.850;2023-11-22T00:42:32;5.69;94.18
76040;SHT30;64736;50.462;4.850;2023-11-22T00:44:57;5.69;94.29
76040;SHT30;64736;50.462;4.850;2023-11-22T00:47:23;5.65;94.11
76040;SHT30;64736;50.462;4.850;2023-11-22T00:49:48;5.65;94.09
76040;SHT30;64736;50.462;4.850;2023-11-22T00:52:14;5.68;94.32
76040;SHT30;64736;50.462;4.850;2023-11-22T00:54:40;5.71;94.25
76040;SHT30;64736;50.462;4.850;2023-11-22T00:57:05;5.78;94.41
76040;SHT30;64736;50.462;4.850;2023-11-22T00:59:32;5.82;94.36
76040;SHT30;64736;50.462;4.850;2023-11-22T01:01:58;5.82;94.57
76040;SHT30;64736;50.462;4.850;2023-11-22T01:04:24;5.78;94.48
76040;SHT30;64736;50.462;4.850;2023-11-22T01:06:49;5.85;94.67
76040;SHT30;64736;50.462;4.850;2023-11-22T01:09:15;5.82;94.39
76040;SHT30;64736;50.462;4.850;2023-11-22T01:11:41;5.83;94.56
76040;SHT30;64736;50.462;4.850;2023-11-22T01:14:06;5.83;94.61
76040;SHT30;64736;50.462;4.850;2023-11-22T01:16:32;5.80;94.36
76040;SHT30;64736;50.462;4.850;2023-11-22T01:18:58;5.86;94.24
76040;SHT30;64736;50.462;4.850;2023-11-22T01:21:23;5.79;94.24
76040;SHT30;64736;50.462;4.850;2023-11-22T01:23:49;5.83;94.36
76040;SHT30;64736;50.462;4.850;2023-11-22T01:26:15;5.83;94.19
76040;SHT30;64736;50.462;4.850;2023-11-22T01:28:42;5.79;93.87
76040;SHT30;64736;50.462;4.850;2023-11-22T01:31:11;5.82;93.90
76040;SHT30;64736;50.462;4.850;2023-11-22T01:33:38;5.80;93.70
76040;SHT30;64736;50.462;4.850;2023-11-22T01:36:04;5.82;93.73
76040;SHT30;64736;50.462;4.850;2023-11-22T01:38:29;5.79;93.74
76040;SHT30;64736;50.462;4.850;2023-11-22T01:40:55;5.83;93.77
76040;SHT30;64736;50.462;4.850;2023-11-22T01:43:21;5.82;93.71
76040;SHT30;64736;50.462;4.850;2023-11-22T01:45:50;5.76;93.96
76040;SHT30;64736;50.462;4.850;2023-11-22T01:48:15;5.78;93.63
76040;SHT30;64736;50.462;4.850;2023-11-22T01:50:42;5.76;93.77
76040;SHT30;64736;50.462;4.850;2023-11-22T01:53:12;5.78;94.03
76040;SHT30;64736;50.462;4.850;2023-11-22T01:55:42;5.68;93.88
76040;SHT30;64736;50.462;4.850;2023-11-22T01:58:09;5.68;94.01
76040;SHT30;64736;50.462;4.850;2023-11-22T02:00:50;5.66;94.23
76040;SHT30;64736;50.462;4.850;2023-11-22T02:03:17;5.62;94.25
76040;SHT30;64736;50.462;4.850;2023-11-22T02:05:45;5.55;94.07
76040;SHT30;64736;50.462;4.850;2023-11-22T02:08:12;5.61;94.30
76040;SHT30;64736;50.462;4.850;2023-11-22T02:10:38;5.61;94.47
76040;SHT30;64736;50.462;4.850;2023-11-22T02:13:05;5.52;94.44
76040;SHT30;64736;50.462;4.850;2023-11-22T02:15:36;5.40;94.25
76040;SHT30;64736;50.462;4.850;2023-11-22T02:18:03;5.40;94.09
76040;SHT30;64736;50.462;4.850;2023-11-22T02:20:31;5.45;94.31
76040;SHT30;64736;50.462;4.850;2023-11-22T02:22:57;5.52;94.62
76040;SHT30;64736;50.462;4.850;2023-11-22T02:25:23;5.42;94.72
76040;SHT30;64736;50.462;4.850;2023-11-22T02:27:49;5.34;94.86
76040;SHT30;64736;50.462;4.850;2023-11-22T02:30:14;5.35;94.85
76040;SHT30;64736;50.462;4.850;2023-11-22T02:32:41;5.37;95.25
76040;SHT30;64736;50.462;4.850;2023-11-22T02:35:08;5.34;95.24
76040;SHT30;64736;50.462;4.850;2023-11-22T02:37:34;5.34;95.07
76040;SHT30;64736;50.462;4.850;2023-11-22T02:42:30;5.31;94.21
76040;SHT30;64736;50.462;4.850;2023-11-22T02:44:56;5.32;94.26
76040;SHT30;64736;50.462;4.850;2023-11-22T02:47:22;5.30;94.11
76040;SHT30;64736;50.462;4.850;2023-11-22T02:49:49;5.26;94.14
76040;SHT30;64736;50.462;4.850;2023-11-22T02:52:15;5.24;94.33
76040;SHT30;64736;50.462;4.850;2023-11-22T02:54:44;5.27;94.45
76040;SHT30;64736;50.462;4.850;2023-11-22T02:57:13;5.27;94.32
76040;SHT30;64736;50.462;4.850;2023-11-22T02:59:44;5.23;94.48
76040;SHT30;64736;50.462;4.850;2023-11-22T03:02:10;5.28;94.28
76040;SHT30;64736;50.462;4.850;2023-11-22T03:04:37;5.19;94.25
76040;SHT30;64736;50.462;4.850;2023-11-22T03:07:04;5.28;94.39
76040;SHT30;64736;50.462;4.850;2023-11-22T03:09:32;5.30;94.52
76040;SHT30;64736;50.462;4.850;2023-11-22T03:11:57;5.14;94.02
76040;SHT30;64736;50.462;4.850;2023-11-22T03:14:23;5.16;94.09
76040;SHT30;64736;50.462;4.850;2023-11-22T03:16:49;5.20;94.08
76040;SHT30;64736;50.462;4.850;2023-11-22T03:19:15;5.19;94.31
76040;SHT30;64736;50.462;4.850;2023-11-22T03:21:40;5.24;94.61
76040;SHT30;64736;50.462;4.850;2023-11-22T03:24:07;5.21;94.61
76040;SHT30;64736;50.462;4.850;2023-11-22T03:26:34;5.13;94.42
76040;SHT30;64736;50.462;4.850;2023-11-22T03:29:00;5.11;94.41
76040;SHT30;64736;50.462;4.850;2023-11-22T03:31:27;5.10;94.34
76040;SHT30;64736;50.462;4.850;2023-11-22T03:33:54;5.17;94.62
76040;SHT30;64736;50.462;4.850;2023-11-22T03:36:20;5.20;94.54
76040;SHT30;64736;50.462;4.850;2023-11-22T03:38:47;5.14;94.73
76040;SHT30;64736;50.462;4.850;2023-11-22T03:41:13;5.11;94.97
76040;SHT30;64736;50.462;4.850;2023-11-22T03:43:39;5.04;94.91
76040;SHT30;64736;50.462;4.850;2023-11-22T03:46:04;5.04;95.15
76040;SHT30;64736;50.462;4.850;2023-11-22T03:48:30;4.92;94.99
76040;SHT30;64736;50.462;4.850;2023-11-22T03:50:56;4.96;95.29
76040;SHT30;64736;50.462;4.850;2023-11-22T03:53:22;4.94;95.05
76040;SHT30;64736;50.462;4.850;2023-11-22T03:55:52;4.83;94.82
76040;SHT30;64736;50.462;4.850;2023-11-22T03:58:18;4.80;94.33
76040;SHT30;64736;50.462;4.850;2023-11-22T04:00:44;4.77;94.54
76040;SHT30;64736;50.462;4.850;2023-11-22T04:03:09;4.73;94.60
76040;SHT30;64736;50.462;4.850;2023-11-22T04:05:35;4.65;94.51
76040;SHT30;64736;50.462;4.850;2023-11-22T04:08:01;4.62;94.91
76040;SHT30;64736;50.462;4.850;2023-11-22T04:10:26;4.52;94.83
76040;SHT30;64736;50.462;4.850;2023-11-22T04:12:52;4.65;94.97
76040;SHT30;64736;50.462;4.850;2023-11-22T04:15:18;4.69;94.96
76040;SHT30;64736;50.462;4.850;2023-11-22T04:17:44;4.68;94.95
76040;SHT30;64736;50.462;4.850;2023-11-22T04:20:10;4.62;94.77
76040;SHT30;64736;50.462;4.850;2023-11-22T04:22:44;4.63;94.93
76040;SHT30;64736;50.462;4.850;2023-11-22T04:25:13;4.59;95.01
76040;SHT30;64736;50.462;4.850;2023-11-22T04:27:39;4.71;94.99
76040;SHT30;64736;50.462;4.850;2023-11-22T04:30:09;4.55;95.03
76040;SHT30;64736;50.462;4.850;2023-11-22T04:32:40;4.61;94.99
76040;SHT30;64736;50.462;4.850;2023-11-22T04:35:10;4.56;95.16
76040;SHT30;64736;50.462;4.850;2023-11-22T04:37:36;4.68;94.98
76040;SHT30;64736;50.462;4.850;2023-11-22T04:40:03;4.66;95.07
76040;SHT30;64736;50.462;4.850;2023-11-22T04:42:37;4.68;95.18
76040;SHT30;64736;50.462;4.850;2023-11-22T04:45:04;4.58;95.12
76040;SHT30;64736;50.462;4.850;2023-11-22T04:47:29;4.68;95.06
76040;SHT30;64736;50.462;4.850;2023-11-22T04:49:55;4.61;95.20
76040;SHT30;64736;50.462;4.850;2023-11-22T04:52:21;4.59;95.39
76040;SHT30;64736;50.462;4.850;2023-11-22T04:54:46;4.66;95.25
76040;SHT30;64736;50.462;4.850;2023-11-22T04:57:12;4.59;95.01
76040;SHT30;64736;50.462;4.850;2023-11-22T04:59:38;4.55;95.01
76040;SHT30;64736;50.462;4.850;2023-11-22T05:02:04;4.62;94.95
76040;SHT30;64736;50.462;4.850;2023-11-22T05:04:29;4.58;94.97
76040;SHT30;64736;50.462;4.850;2023-11-22T05:06:56;4.59;94.94
76040;SHT30;64736;50.462;4.850;2023-11-22T05:09:21;4.62;94.86
76040;SHT30;64736;50.462;4.850;2023-11-22T05:11:47;4.59;94.71
76040;SHT30;64736;50.462;4.850;2023-11-22T05:14:13;4.51;94.72
76040;SHT30;64736;50.462;4.850;2023-11-22T05:16:38;4.54;94.88
76040;SHT30;64736;50.462;4.850;2023-11-22T05:19:04;4.51;94.92
76040;SHT30;64736;50.462;4.850;2023-11-22T05:21:31;4.56;95.07
76040;SHT30;64736;50.462;4.850;2023-11-22T05:23:58;4.49;95.03
76040;SHT30;64736;50.462;4.850;2023-11-22T05:26:24;4.34;95.05
76040;SHT30;64736;50.462;4.850;2023-11-22T05:28:50;4.44;95.22
76040;SHT30;64736;50.462;4.850;2023-11-22T05:31:16;4.41;95.13
76040;SHT30;64736;50.462;4.850;2023-11-22T05:33:41;4.33;94.99
76040;SHT30;64736;50.462;4.850;2023-11-22T05:36:08;4.40;94.83
76040;SHT30;64736;50.462;4.850;2023-11-22T05:38:34;4.45;94.92
76040;SHT30;64736;50.462;4.850;2023-11-22T05:41:01;4.46;94.81
76040;SHT30;64736;50.462;4.850;2023-11-22T05:43:26;4.42;94.51
76040;SHT30;64736;50.462;4.850;2023-11-22T05:45:53;4.41;94.41
76040;SHT30;64736;50.462;4.850;2023-11-22T05:48:19;4.45;94.23
76040;SHT30;64736;50.462;4.850;2023-11-22T05:50:45;4.52;94.22
76040;SHT30;64736;50.462;4.850;2023-11-22T05:53:12;4.41;94.38
76040;SHT30;64736;50.462;4.850;2023-11-22T05:55:38;4.35;94.07
76040;SHT30;64736;50.462;4.850;2023-11-22T05:58:04;4.42;94.02
76040;SHT30;64736;50.462;4.850;2023-11-22T06:00:29;4.44;94.00
76040;SHT30;64736;50.462;4.850;2023-11-22T06:02:55;4.44;93.93
76040;SHT30;64736;50.462;4.850;2023-11-22T06:05:21;4.45;93.88
76040;SHT30;64736;50.462;4.850;2023-11-22T06:07:47;4.48;93.61
76040;SHT30;64736;50.462;4.850;2023-11-22T06:10:13;4.54;93.73
76040;SHT30;64736;50.462;4.850;2023-11-22T06:12:41;4.48;93.56
76040;SHT30;64736;50.462;4.850;2023-11-22T06:15:07;4.48;93.37
76040;SHT30;64736;50.462;4.850;2023-11-22T06:17:33;4.52;93.54
76040;SHT30;64736;50.462;4.850;2023-11-22T06:19:59;4.51;93.44
76040;SHT30;64736;50.462;4.850;2023-11-22T06:22:24;4.56;93.80
76040;SHT30;64736;50.462;4.850;2023-11-22T06:24:50;4.59;93.37
76040;SHT30;64736;50.462;4.850;2023-11-22T06:27:16;4.61;93.20
76040;SHT30;64736;50.462;4.850;2023-11-22T06:29:41;4.65;93.02
76040;SHT30;64736;50.462;4.850;2023-11-22T06:32:10;4.58;92.92
76040;SHT30;64736;50.462;4.850;2023-11-22T06:34:36;4.54;92.36
76040;SHT30;64736;50.462;4.850;2023-11-22T06:37:02;4.76;92.54
76040;SHT30;64736;50.462;4.850;2023-11-22T06:39:28;4.75;92.20
76040;SHT30;64736;50.462;4.850;2023-11-22T06:41:53;4.65;92.30
76040;SHT30;64736;50.462;4.850;2023-11-22T06:44:19;4.71;92.70
76040;SHT30;64736;50.462;4.850;2023-11-22T06:46:45;4.72;92.88
76040;SHT30;64736;50.462;4.850;2023-11-22T06:49:10;4.77;92.68
76040;SHT30;64736;50.462;4.850;2023-11-22T06:51:36;4.75;92.77
76040;SHT30;64736;50.462;4.850;2023-11-22T06:54:02;4.72;92.88
76040;SHT30;64736;50.462;4.850;2023-11-22T06:56:28;4.77;92.80
76040;SHT30;64736;50.462;4.850;2023-11-22T06:58:54;4.66;92.82
76040;SHT30;64736;50.462;4.850;2023-11-22T07:01:23;4.75;93.08
76040;SHT30;64736;50.462;4.850;2023-11-22T07:03:51;4.86;92.91
76040;SHT30;64736;50.462;4.850;2023-11-22T07:06:18;4.92;92.84
76040;SHT30;64736;50.462;4.850;2023-11-22T07:08:44;4.94;92.85
76040;SHT30;64736;50.462;4.850;2023-11-22T07:11:11;4.92;92.87
76040;SHT30;64736;50.462;4.850;2023-11-22T07:13:36;4.79;92.63
76040;SHT30;64736;50.462;4.850;2023-11-22T07:16:05;4.93;92.30
76040;SHT30;64736;50.462;4.850;2023-11-22T07:18:33;4.87;92.47
76040;SHT30;64736;50.462;4.850;2023-11-22T07:20:59;4.84;92.73
76040;SHT30;64736;50.462;4.850;2023-11-22T07:23:25;4.93;92.70
76040;SHT30;64736;50.462;4.850;2023-11-22T07:25:52;4.69;92.80
76040;SHT30;64736;50.462;4.850;2023-11-22T07:28:20;4.79;92.99
76040;SHT30;64736;50.462;4.850;2023-11-22T07:30:45;4.94;93.04
76040;SHT30;64736;50.462;4.850;2023-11-22T07:33:15;5.13;92.61
76040;SHT30;64736;50.462;4.850;2023-11-22T07:35:41;5.01;92.47
76040;SHT30;64736;50.462;4.850;2023-11-22T07:38:06;4.90;92.82
76040;SHT30;64736;50.462;4.850;2023-11-22T07:40:36;5.07;92.75
76040;SHT30;64736;50.462;4.850;2023-11-22T07:43:02;5.03;92.76
76040;SHT30;64736;50.462;4.850;2023-11-22T07:45:31;4.94;92.77
76040;SHT30;64736;50.462;4.850;2023-11-22T07:47:57;5.03;92.88
76040;SHT30;64736;50.462;4.850;2023-11-22T07:50:25;4.99;92.95
76040;SHT30;64736;50.462;4.850;2023-11-22T07:52:51;5.19;92.67
76040;SHT30;64736;50.462;4.850;2023-11-22T07:55:17;5.09;92.97
76040;SHT30;64736;50.462;4.850;2023-11-22T07:57:44;5.26;92.55
76040;SHT30;64736;50.462;4.850;2023-11-22T08:00:11;5.13;92.87
76040;SHT30;64736;50.462;4.850;2023-11-22T08:02:37;4.97;92.86
76040;SHT30;64736;50.462;4.850;2023-11-22T08:05:08;4.92;93.04
76040;SHT30;64736;50.462;4.850;2023-11-22T08:07:37;4.96;92.72
76040;SHT30;64736;50.462;4.850;2023-11-22T08:10:06;4.99;92.48
76040;SHT30;64736;50.462;4.850;2023-11-22T08:12:43;5.07;92.43
76040;SHT30;64736;50.462;4.850;2023-11-22T08:15:13;5.06;91.99
76040;SHT30;64736;50.462;4.850;2023-11-22T08:17:39;5.19;91.73
76040;SHT30;64736;50.462;4.850;2023-11-22T08:20:06;5.35;91.76
76040;SHT30;64736;50.462;4.850;2023-11-22T08:22:32;5.28;90.95
76040;SHT30;64736;50.462;4.850;2023-11-22T08:25:02;5.23;90.95
76040;SHT30;64736;50.462;4.850;2023-11-22T08:27:29;5.30;90.87
76040;SHT30;64736;50.462;4.850;2023-11-22T08:29:54;5.23;90.42
76040;SHT30;64736;50.462;4.850;2023-11-22T08:32:20;5.16;90.31
76040;SHT30;64736;50.462;4.850;2023-11-22T08:34:49;5.42;89.86
76040;SHT30;64736;50.462;4.850;2023-11-22T08:37:15;5.62;89.83
76040;SHT30;64736;50.462;4.850;2023-11-22T08:39:41;5.30;89.79
76040;SHT30;64736;50.462;4.850;2023-11-22T08:42:07;5.48;89.39
76040;SHT30;64736;50.462;4.850;2023-11-22T08:44:38;5.38;89.72
76040;SHT30;64736;50.462;4.850;2023-11-22T08:47:03;5.41;89.65
76040;SHT30;64736;50.462;4.850;2023-11-22T08:49:30;5.40;88.61
76040;SHT30;64736;50.462;4.850;2023-11-22T08:51:58;5.31;89.31
76040;SHT30;64736;50.462;4.850;2023-11-22T08:54:28;5.47;90.12
76040;SHT30;64736;50.462;4.850;2023-11-22T08:56:55;5.35;89.60
76040;SHT30;64736;50.462;4.850;2023-11-22T08:59:23;5.40;89.34
76040;SHT30;64736;50.462;4.850;2023-11-22T09:01:49;5.56;89.75
76040;SHT30;64736;50.462;4.850;2023-11-22T09:04:14;5.51;89.64
76040;SHT30;64736;50.462;4.850;2023-11-22T09:06:41;5.51;89.18
76040;SHT30;64736;50.462;4.850;2023-11-22T09:09:07;5.38;89.18
76040;SHT30;64736;50.462;4.850;2023-11-22T09:11:34;5.56;88.81
76040;SHT30;64736;50.462;4.850;2023-11-22T09:14:00;5.31;88.47
76040;SHT30;64736;50.462;4.850;2023-11-22T09:16:37;5.56;88.92
76040;SHT30;64736;50.462;4.850;2023-11-22T09:19:04;5.48;87.46
76040;SHT30;64736;50.462;4.850;2023-11-22T09:21:32;5.48;87.50
76040;SHT30;64736;50.462;4.850;2023-11-22T09:23:58;5.34;87.82
76040;SHT30;64736;50.462;4.850;2023-11-22T09:26:24;5.34;88.19
76040;SHT30;64736;50.462;4.850;2023-11-22T09:28:50;5.61;87.41
76040;SHT30;64736;50.462;4.850;2023-11-22T09:31:16;5.50;86.79
76040;SHT30;64736;50.462;4.850;2023-11-22T09:33:45;5.42;86.38
76040;SHT30;64736;50.462;4.850;2023-11-22T09:36:12;5.62;86.64
76040;SHT30;64736;50.462;4.850;2023-11-22T09:38:38;5.61;86.11
76040;SHT30;64736;50.462;4.850;2023-11-22T09:41:04;5.71;85.94
76040;SHT30;64736;50.462;4.850;2023-11-22T09:43:30;5.90;86.13
76040;SHT30;64736;50.462;4.850;2023-11-22T09:45:56;5.58;86.99
76040;SHT30;64736;50.462;4.850;2023-11-22T09:48:23;5.63;87.66
76040;SHT30;64736;50.462;4.850;2023-11-22T09:56:02;5.85;86.13
76040;SHT30;64736;50.462;4.850;2023-11-22T09:58:32;5.71;85.73
76040;SHT30;64736;50.462;4.850;2023-11-22T10:01:01;5.61;86.05
76040;SHT30;64736;50.462;4.850;2023-11-22T10:03:27;5.88;85.78
76040;SHT30;64736;50.462;4.850;2023-11-22T10:05:56;6.06;84.92
76040;SHT30;64736;50.462;4.850;2023-11-22T10:08:25;6.19;84.19
76040;SHT30;64736;50.462;4.850;2023-11-22T10:10:53;5.96;84.42
76040;SHT30;64736;50.462;4.850;2023-11-22T10:13:22;6.23;84.41
76040;SHT30;64736;50.462;4.850;2023-11-22T10:15:52;6.27;84.17
76040;SHT30;64736;50.462;4.850;2023-11-22T10:18:21;6.00;84.81
76040;SHT30;64736;50.462;4.850;2023-11-22T10:20:49;6.17;84.21
76040;SHT30;64736;50.462;4.850;2023-11-22T10:23:17;6.58;82.22
76040;SHT30;64736;50.462;4.850;2023-11-22T10:25:47;6.64;82.02
76040;SHT30;64736;50.462;4.850;2023-11-22T10:28:16;6.40;83.14
76040;SHT30;64736;50.462;4.850;2023-11-22T10:30:46;6.71;82.50
76040;SHT30;64736;50.462;4.850;2023-11-22T10:33:14;7.72;78.56
76040;SHT30;64736;50.462;4.850;2023-11-22T10:35:47;6.68;81.42
76040;SHT30;64736;50.462;4.850;2023-11-22T10:38:15;6.75;81.30
76040;SHT30;64736;50.462;4.850;2023-11-22T10:40:41;7.03;81.47
76040;SHT30;64736;50.462;4.850;2023-11-22T10:43:11;6.67;81.93
76040;SHT30;64736;50.462;4.850;2023-11-22T10:45:37;6.30;82.62
76040;SHT30;64736;50.462;4.850;2023-11-22T10:48:04;6.78;81.24
76040;SHT30;64736;50.462;4.850;2023-11-22T10:50:30;7.50;79.43
76040;SHT30;64736;50.462;4.850;2023-11-22T10:52:57;6.91;80.45
76040;SHT30;64736;50.462;4.850;2023-11-22T10:55:31;6.82;81.17
76040;SHT30;64736;50.462;4.850;2023-11-22T10:58:03;7.92;78.44
76040;SHT30;64736;50.462;4.850;2023-11-22T11:00:33;8.84;75.75
76040;SHT30;64736;50.462;4.850;2023-11-22T11:03:05;7.92;76.74
76040;SHT30;64736;50.462;4.850;2023-11-22T11:05:38;7.44;78.13
76040;SHT30;64736;50.462;4.850;2023-11-22T11:08:28;7.36;77.81
76040;SHT30;64736;50.462;4.850;2023-11-22T11:10:54;7.17;79.13
76040;SHT30;64736;50.462;4.850;2023-11-22T11:13:24;7.06;79.11
76040;SHT30;64736;50.462;4.850;2023-11-22T11:15:50;6.82;79.98
76040;SHT30;64736;50.462;4.850;2023-11-22T11:18:17;6.59;80.08
76040;SHT30;64736;50.462;4.850;2023-11-22T11:20:53;6.59;80.78
76040;SHT30;64736;50.462;4.850;2023-11-22T11:23:21;6.59;81.50
76040;SHT30;64736;50.462;4.850;2023-11-22T11:26:08;6.48;80.88
76040;SHT30;64736;50.462;4.850;2023-11-22T11:28:43;7.03;80.50
76040;SHT30;64736;50.462;4.850;2023-11-22T11:31:16;9.05;75.49
76040;SHT30;64736;50.462;4.850;2023-11-22T11:36:24;9.84;69.57
76040;SHT30;64736;50.462;4.850;2023-11-22T11:38:54;10.52;65.34
76040;SHT30;64736;50.462;4.850;2023-11-22T11:41:29;8.85;71.38
76040;SHT30;64736;50.462;4.850;2023-11-22T11:43:56;10.79;68.90
76040;SHT30;64736;50.462;4.850;2023-11-22T11:46:22;9.99;68.65
76040;SHT30;64736;50.462;4.850;2023-11-22T11:48:53;10.16;67.10
76040;SHT30;64736;50.462;4.850;2023-11-22T11:51:23;11.01;66.23
76040;SHT30;64736;50.462;4.850;2023-11-22T11:53:49;11.11;63.88
76040;SHT30;64736;50.462;4.850;2023-11-22T11:56:16;9.71;69.11
76040;SHT30;64736;50.462;4.850;2023-11-22T11:58:48;9.66;68.60
76040;SHT30;64736;50.462;4.850;2023-11-22T12:01:18;9.78;69.44
76040;SHT30;64736;50.462;4.850;2023-11-22T12:03:48;10.15;68.53
76040;SHT30;64736;50.462;4.850;2023-11-22T12:06:17;10.97;65.72
76040;SHT30;64736;50.462;4.850;2023-11-22T12:08:45;10.64;66.21
76040;SHT30;64736;50.462;4.850;2023-11-22T12:11:13;10.56;66.53
76040;SHT30;64736;50.462;4.850;2023-11-22T12:13:39;11.38;63.45
76040;SHT30;64736;50.462;4.850;2023-11-22T12:16:09;10.12;66.30
76040;SHT30;64736;50.462;4.850;2023-11-22T12:18:43;9.61;68.40
76040;SHT30;64736;50.462;4.850;2023-11-22T12:21:10;9.80;67.14
76040;SHT30;64736;50.462;4.850;2023-11-22T12:23:38;10.63;66.43
76040;SHT30;64736;50.462;4.850;2023-11-22T12:26:04;9.26;68.73
76040;SHT30;64736;50.462;4.850;2023-11-22T12:28:30;9.22;69.64
76040;SHT30;64736;50.462;4.850;2023-11-22T12:31:12;9.28;69.47
76040;SHT30;64736;50.462;4.850;2023-11-22T12:33:40;9.78;69.50
76040;SHT30;64736;50.462;4.850;2023-11-22T12:36:07;8.49;71.23
76040;SHT30;64736;50.462;4.850;2023-11-22T12:38:42;9.12;71.00
76040;SHT30;64736;50.462;4.850;2023-11-22T12:41:07;9.14;70.32
76040;SHT30;64736;50.462;4.850;2023-11-22T12:43:34;8.68;70.83
76040;SHT30;64736;50.462;4.850;2023-11-22T12:46:00;9.43;68.99
76040;SHT30;64736;50.462;4.850;2023-11-22T12:48:27;9.66;68.21
76040;SHT30;64736;50.462;4.850;2023-11-22T12:50:58;9.67;68.65
76040;SHT30;64736;50.462;4.850;2023-11-22T12:53:24;11.29;64.38
76040;SHT30;64736;50.462;4.850;2023-11-22T12:55:56;10.12;65.92
76040;SHT30;64736;50.462;4.850;2023-11-22T12:58:23;10.60;66.74
76040;SHT30;64736;50.462;4.850;2023-11-22T13:00:51;11.34;64.95
76040;SHT30;64736;50.462;4.850;2023-11-22T13:03:19;12.25;60.42
76040;SHT30;64736;50.462;4.850;2023-11-22T13:05:45;12.03;60.94
76040;SHT30;64736;50.462;4.850;2023-11-22T13:08:12;11.70;62.83
76040;SHT30;64736;50.462;4.850;2023-11-22T13:10:44;9.98;67.02
76040;SHT30;64736;50.462;4.850;2023-11-22T13:13:12;9.64;68.59
76040;SHT30;64736;50.462;4.850;2023-11-22T13:15:38;10.94;65.73
76040;SHT30;64736;50.462;4.850;2023-11-22T13:18:06;12.17;60.27
76040;SHT30;64736;50.462;4.850;2023-11-22T13:20:32;12.04;60.49
76040;SHT30;64736;50.462;4.850;2023-11-22T13:22:58;12.00;61.21
76040;SHT30;64736;50.462;4.850;2023-11-22T13:25:25;10.12;64.15
76040;SHT30;64736;50.462;4.850;2023-11-22T13:27:52;11.28;62.56
76040;SHT30;64736;50.462;4.850;2023-11-22T13:30:22;12.51;57.26
76040;SHT30;64736;50.462;4.850;2023-11-22T13:32:49;12.42;55.43
76040;SHT30;64736;50.462;4.850;2023-11-22T13:35:15;12.73;55.42
76040;SHT30;64736;50.462;4.850;2023-11-22T13:37:43;11.73;56.79
76040;SHT30;64736;50.462;4.850;2023-11-22T13:40:10;11.07;61.26
76040;SHT30;64736;50.462;4.850;2023-11-22T13:42:45;11.45;59.08
76040;SHT30;64736;50.462;4.850;2023-11-22T13:45:12;11.69;59.75
76040;SHT30;64736;50.462;4.850;2023-11-22T13:47:44;13.03;58.13
76040;SHT30;64736;50.462;4.850;2023-11-22T13:50:13;12.41;57.67
76040;SHT30;64736;50.462;4.850;2023-11-22T13:52:40;11.67;60.91
76040;SHT30;64736;50.462;4.850;2023-11-22T13:55:06;12.27;61.28
76040;SHT30;64736;50.462;4.850;2023-11-22T13:57:37;12.52;58.51
76040;SHT30;64736;50.462;4.850;2023-11-22T14:00:07;12.28;58.26
76040;SHT30;64736;50.462;4.850;2023-11-22T14:02:56;11.73;61.29
76040;SHT30;64736;50.462;4.850;2023-11-22T14:05:23;10.77;62.63
76040;SHT30;64736;50.462;4.850;2023-11-22T14:07:49;9.78;65.73
76040;SHT30;64736;50.462;4.850;2023-11-22T14:10:17;9.97;66.60
76040;SHT30;64736;50.462;4.850;2023-11-22T14:12:43;11.17;63.42
76040;SHT30;64736;50.462;4.850;2023-11-22T14:15:12;9.84;65.21
76040;SHT30;64736;50.462;4.850;2023-11-22T14:17:38;9.23;68.36
76040;SHT30;64736;50.462;4.850;2023-11-22T14:20:10;9.70;68.32
76040;SHT30;64736;50.462;4.850;2023-11-22T14:22:39;10.76;63.24
76040;SHT30;64736;50.462;4.850;2023-11-22T14:25:06;9.56;66.11
76040;SHT30;64736;50.462;4.850;2023-11-22T14:27:43;9.42;69.48
76040;SHT30;64736;50.462;4.850;2023-11-22T14:30:10;10.22;65.92
76040;SHT30;64736;50.462;4.850;2023-11-22T14:32:41;10.08;67.15
76040;SHT30;64736;50.462;4.850;2023-11-22T14:35:08;10.08;66.32
76040;SHT30;64736;50.462;4.850;2023-11-22T14:37:34;10.02;67.35
76040;SHT30;64736;50.462;4.850;2023-11-22T14:40:01;9.93;67.49
76040;SHT30;64736;50.462;4.850;2023-11-22T14:42:30;9.80;66.75
76040;SHT30;64736;50.462;4.850;2023-11-22T14:44:57;9.50;68.07
76040;SHT30;64736;50.462;4.850;2023-11-22T14:47:23;9.64;67.70
76040;SHT30;64736;50.462;4.850;2023-11-22T14:49:52;9.54;68.39
76040;SHT30;64736;50.462;4.850;2023-11-22T14:52:19;9.54;69.92
76040;SHT30;64736;50.462;4.850;2023-11-22T14:54:47;9.50;69.49
76040;SHT30;64736;50.462;4.850;2023-11-22T14:57:13;9.47;70.75
76040;SHT30;64736;50.462;4.850;2023-11-22T14:59:42;9.42;69.77
76040;SHT30;64736;50.462;4.850;2023-11-22T15:02:09;9.02;70.81
76040;SHT30;64736;50.462;4.850;2023-11-22T15:04:37;9.26;71.86
76040;SHT30;64736;50.462;4.850;2023-11-22T15:07:06;9.28;72.39
76040;SHT30;64736;50.462;4.850;2023-11-22T15:09:32;9.14;72.10
76040;SHT30;64736;50.462;4.850;2023-11-22T15:12:01;9.47;69.95
76040;SHT30;64736;50.462;4.850;2023-11-22T15:14:31;9.50;71.19
76040;SHT30;64736;50.462;4.850;2023-11-22T15:16:58;9.33;72.78
76040;SHT30;64736;50.462;4.850;2023-11-22T15:19:29;9.04;71.85
76040;SHT30;64736;50.462;4.850;2023-11-22T15:21:55;9.26;74.37
76040;SHT30;64736;50.462;4.850;2023-11-22T15:24:21;9.30;74.39
76040;SHT30;64736;50.462;4.850;2023-11-22T15:26:47;9.09;74.42
76040;SHT30;64736;50.462;4.850;2023-11-22T15:29:13;9.05;74.96
76040;SHT30;64736;50.462;4.850;2023-11-22T15:31:41;9.30;74.96
76040;SHT30;64736;50.462;4.850;2023-11-22T15:34:09;9.19;72.94
76040;SHT30;64736;50.462;4.850;2023-11-22T15:36:34;9.14;74.02
76040;SHT30;64736;50.462;4.850;2023-11-22T15:39:01;9.35;71.91
76040;SHT30;64736;50.462;4.850;2023-11-22T15:41:27;8.77;74.15
76040;SHT30;64736;50.462;4.850;2023-11-22T15:43:56;9.09;72.23
76040;SHT30;64736;50.462;4.850;2023-11-22T15:46:22;8.99;72.04
76040;SHT30;64736;50.462;4.850;2023-11-22T15:48:52;9.05;71.79
76040;SHT30;64736;50.462;4.850;2023-11-22T15:51:18;9.05;71.00
76040;SHT30;64736;50.462;4.850;2023-11-22T15:53:44;9.09;71.27
76040;SHT30;64736;50.462;4.850;2023-11-22T15:56:09;8.98;71.59